sensor_id;sensor_type;location;lat;lon;timestamp;pressure;altitude;pressure_sealevel;temperature;humidity
64521;BME280;50896;46.714;17.322;2023-05-16T00:01:47;99920.22;;;14.52;100.00
64521;BME280;50896;46.714;17.322;2023-05-16T00:04:14;99911.59;;;14.50;100.00
64521;BME280;50896;46.714;17.322;2023-05-16T00:06:41;99907.47;;;14.48;100.00
64521;BME280;50896;46.714;17.322;2023-05-16T00:09:08;99903.13;;;14.47;100.00
64521;BME280;50896;46.714;17.322;2023-05-16T00:11:34;99908.50;;;14.47;100.00
64521;BME280;50896;46.714;17.322;2023-05-16T00:14:01;99892.44;;;14.40;100.00
64521;BME280;50896;46.714;17.322;2023-05-16T00:16:28;99894.91;;;14.42;100.00
64521;BME280;50896;46.714;17.322;2023-05-16T00:18:56;99901.72;;;14.44;100.00
64521;BME280;50896;46.714;17.322;2023-05-16T00:21:27;99897.78;;;14.40;100.00
64521;BME280;50896;46.714;17.322;2023-05-16T00:23:53;99889.34;;;14.36;100.00
64521;BME280;50896;46.714;17.322;2023-05-16T00:26:20;99903.53;;;14.44;100.00
64521;BME280;50896;46.714;17.322;2023-05-16T00:28:47;99899.22;;;14.43;100.00
64521;BME280;50896;46.714;17.322;2023-05-16T00:31:14;99903.53;;;14.44;100.00
64521;BME280;50896;46.714;17.322;2023-05-16T00:33:41;99911.16;;;14.47;100.00
64521;BME280;50896;46.714;17.322;2023-05-16T00:36:08;99903.97;;;14.47;100.00
64521;BME280;50896;46.714;17.322;2023-05-16T00:38:35;99895.13;;;14.47;100.00
64521;BME280;50896;46.714;17.322;2023-05-16T00:41:03;99900.91;;;14.50;100.00
64521;BME280;50896;46.714;17.322;2023-05-16T00:43:30;99899.44;;;14.48;100.00
64521;BME280;50896;46.714;17.322;2023-05-16T00:45:57;99895.34;;;14.52;100.00
64521;BME280;50896;46.714;17.322;2023-05-16T00:48:24;99890.00;;;14.52;100.00
64521;BME280;50896;46.714;17.322;2023-05-16T00:50:51;99888.53;;;14.49;100.00
64521;BME280;50896;46.714;17.322;2023-05-16T00:53:20;99891.84;;;14.45;100.00
64521;BME280;50896;46.714;17.322;2023-05-16T00:55:47;99878.88;;;14.42;100.00
64521;BME280;50896;46.714;17.322;2023-05-16T00:58:15;99870.00;;;14.41;100.00
64521;BME280;50896;46.714;17.322;2023-05-16T01:00:43;99885.03;;;14.42;100.00
64521;BME280;50896;46.714;17.322;2023-05-16T01:03:13;99888.72;;;14.41;100.00
64521;BME280;50896;46.714;17.322;2023-05-16T01:05:41;99894.28;;;14.40;100.00
64521;BME280;50896;46.714;17.322;2023-05-16T01:08:07;99901.47;;;14.39;100.00
64521;BME280;50896;46.714;17.322;2023-05-16T01:11:03;99892.41;;;14.33;100.00
64521;BME280;50896;46.714;17.322;2023-05-16T01:16:43;99901.69;;;14.38;100.00
64521;BME280;50896;46.714;17.322;2023-05-16T01:24:59;99908.25;;;14.35;100.00
64521;BME280;50896;46.714;17.322;2023-05-16T01:27:28;99912.59;;;14.36;100.00
64521;BME280;50896;46.714;17.322;2023-05-16T01:29:56;99892.81;;;14.30;100.00
64521;BME280;50896;46.714;17.322;2023-05-16T01:32:23;99893.22;;;14.34;100.00
64521;BME280;50896;46.714;17.322;2023-05-16T01:34:50;99871.63;;;14.35;100.00
64521;BME280;50896;46.714;17.322;2023-05-16T01:37:23;99864.66;;;14.34;100.00
64521;BME280;50896;46.714;17.322;2023-05-16T01:40:00;99864.44;;;14.43;100.00
64521;BME280;50896;46.714;17.322;2023-05-16T01:42:36;99853.34;;;14.39;100.00
64521;BME280;50896;46.714;17.322;2023-05-16T01:45:09;99851.09;;;14.36;100.00
64521;BME280;50896;46.714;17.322;2023-05-16T01:47:43;99841.56;;;14.27;100.00
64521;BME280;50896;46.714;17.322;2023-05-16T01:50:15;99835.63;;;14.31;100.00
64521;BME280;50896;46.714;17.322;2023-05-16T01:52:57;99829.03;;;14.27;100.00
64521;BME280;50896;46.714;17.322;2023-05-16T01:55:43;99813.41;;;14.24;100.00
64521;BME280;50896;46.714;17.322;2023-05-16T01:58:12;99816.69;;;14.26;100.00
64521;BME280;50896;46.714;17.322;2023-05-16T02:00:40;99821.00;;;14.21;100.00
64521;BME280;50896;46.714;17.322;2023-05-16T02:03:08;99825.47;;;14.13;100.00
64521;BME280;50896;46.714;17.322;2023-05-16T02:05:35;99832.06;;;14.17;100.00
64521;BME280;50896;46.714;17.322;2023-05-16T02:08:02;99822.22;;;14.18;100.00
64521;BME280;50896;46.714;17.322;2023-05-16T02:10:30;99820.16;;;14.20;100.00
64521;BME280;50896;46.714;17.322;2023-05-16T02:12:58;99813.00;;;14.21;100.00
64521;BME280;50896;46.714;17.322;2023-05-16T02:15:25;99812.16;;;14.20;100.00
64521;BME280;50896;46.714;17.322;2023-05-16T02:17:52;99809.47;;;14.20;100.00
64521;BME280;50896;46.714;17.322;2023-05-16T02:20:19;99810.50;;;14.19;100.00
64521;BME280;50896;46.714;17.322;2023-05-16T02:22:46;99813.16;;;14.19;100.00
64521;BME280;50896;46.714;17.322;2023-05-16T02:25:15;99821.00;;;14.21;100.00
64521;BME280;50896;46.714;17.322;2023-05-16T02:27:42;99813.81;;;14.21;100.00
64521;BME280;50896;46.714;17.322;2023-05-16T02:30:10;99816.28;;;14.23;100.00
64521;BME280;50896;46.714;17.322;2023-05-16T02:32:40;99828.22;;;14.27;100.00
64521;BME280;50896;46.714;17.322;2023-05-16T02:35:11;99840.13;;;14.24;100.00
64521;BME280;50896;46.714;17.322;2023-05-16T02:37:38;99842.19;;;14.22;100.00
64521;BME280;50896;46.714;17.322;2023-05-16T02:40:06;99836.22;;;14.20;100.00
64521;BME280;50896;46.714;17.322;2023-05-16T02:42:35;99841.16;;;14.23;100.00
64521;BME280;50896;46.714;17.322;2023-05-16T02:45:02;99831.88;;;14.19;100.00
64521;BME280;50896;46.714;17.322;2023-05-16T02:47:29;99815.84;;;14.19;100.00
64521;BME280;50896;46.714;17.322;2023-05-16T02:49:55;99806.19;;;14.18;100.00
64521;BME280;50896;46.714;17.322;2023-05-16T02:52:22;99796.28;;;14.12;100.00
64521;BME280;50896;46.714;17.322;2023-05-16T02:54:49;99794.66;;;14.11;100.00
64521;BME280;50896;46.714;17.322;2023-05-16T02:57:36;99796.44;;;14.04;100.00
64521;BME280;50896;46.714;17.322;2023-05-16T03:00:03;99807.63;;;14.14;100.00
64521;BME280;50896;46.714;17.322;2023-05-16T03:02:31;99808.22;;;14.16;100.00
64521;BME280;50896;46.714;17.322;2023-05-16T03:04:58;99816.22;;;14.09;100.00
64521;BME280;50896;46.714;17.322;2023-05-16T03:07:25;99824.06;;;14.11;100.00
64521;BME280;50896;46.714;17.322;2023-05-16T03:09:52;99831.66;;;14.14;100.00
64521;BME280;50896;46.714;17.322;2023-05-16T03:12:19;99833.91;;;14.10;100.00
64521;BME280;50896;46.714;17.322;2023-05-16T03:14:45;99834.72;;;14.04;100.00
64521;BME280;50896;46.714;17.322;2023-05-16T03:17:12;99849.53;;;14.13;100.00
64521;BME280;50896;46.714;17.322;2023-05-16T03:19:39;99852.00;;;14.08;100.00
64521;BME280;50896;46.714;17.322;2023-05-16T03:22:06;99860.22;;;14.07;100.00
64521;BME280;50896;46.714;17.322;2023-05-16T03:24:32;99872.75;;;14.06;100.00
64521;BME280;50896;46.714;17.322;2023-05-16T03:26:59;99897.84;;;14.05;100.00
64521;BME280;50896;46.714;17.322;2023-05-16T03:29:26;99894.72;;;14.01;100.00
64521;BME280;50896;46.714;17.322;2023-05-16T03:31:53;99887.31;;;13.97;100.00
64521;BME280;50896;46.714;17.322;2023-05-16T03:34:21;99867.34;;;13.93;100.00
64521;BME280;50896;46.714;17.322;2023-05-16T03:36:48;99854.00;;;13.93;100.00
64521;BME280;50896;46.714;17.322;2023-05-16T03:39:16;99845.72;;;13.88;100.00
64521;BME280;50896;46.714;17.322;2023-05-16T03:41:43;99847.59;;;13.87;100.00
64521;BME280;50896;46.714;17.322;2023-05-16T03:44:10;99850.44;;;13.85;100.00
64521;BME280;50896;46.714;17.322;2023-05-16T03:46:37;99851.69;;;13.90;100.00
64521;BME280;50896;46.714;17.322;2023-05-16T03:49:04;99851.72;;;13.96;100.00
64521;BME280;50896;46.714;17.322;2023-05-16T03:51:31;99845.72;;;13.88;100.00
64521;BME280;50896;46.714;17.322;2023-05-16T03:53:58;99856.66;;;13.99;100.00
64521;BME280;50896;46.714;17.322;2023-05-16T03:56:25;99844.75;;;14.02;100.00
64521;BME280;50896;46.714;17.322;2023-05-16T03:58:52;99845.78;;;13.94;100.00
64521;BME280;50896;46.714;17.322;2023-05-16T04:01:19;99837.50;;;13.89;100.00
64521;BME280;50896;46.714;17.322;2023-05-16T04:03:46;99835.84;;;13.88;100.00
64521;BME280;50896;46.714;17.322;2023-05-16T04:06:13;99828.47;;;13.90;100.00
64521;BME280;50896;46.714;17.322;2023-05-16T04:08:40;99833.44;;;13.93;100.00
64521;BME280;50896;46.714;17.322;2023-05-16T04:11:09;99826.22;;;13.87;100.00
64521;BME280;50896;46.714;17.322;2023-05-16T04:13:35;99828.47;;;13.90;100.00
64521;BME280;50896;46.714;17.322;2023-05-16T04:16:02;99836.91;;;13.87;100.00
64521;BME280;50896;46.714;17.322;2023-05-16T04:18:29;99856.63;;;13.86;100.00
64521;BME280;50896;46.714;17.322;2023-05-16T04:20:56;99841.00;;;13.83;100.00
64521;BME280;50896;46.714;17.322;2023-05-16T04:23:23;99853.72;;;13.81;100.00
64521;BME280;50896;46.714;17.322;2023-05-16T04:25:49;99880.41;;;13.81;100.00
64521;BME280;50896;46.714;17.322;2023-05-16T04:28:16;99886.97;;;13.78;100.00
64521;BME280;50896;46.714;17.322;2023-05-16T04:30:43;99881.88;;;13.83;100.00
64521;BME280;50896;46.714;17.322;2023-05-16T04:33:10;99876.75;;;13.82;100.00
64521;BME280;50896;46.714;17.322;2023-05-16T04:35:37;99864.44;;;13.88;100.00
64521;BME280;50896;46.714;17.322;2023-05-16T04:38:05;99860.25;;;13.78;100.00
64521;BME280;50896;46.714;17.322;2023-05-16T04:40:32;99858.63;;;13.77;100.00
64521;BME280;50896;46.714;17.322;2023-05-16T04:42:59;99867.25;;;13.79;100.00
64521;BME280;50896;46.714;17.322;2023-05-16T04:45:26;99873.16;;;13.68;100.00
64521;BME280;50896;46.714;17.322;2023-05-16T04:47:53;99868.44;;;13.70;100.00
64521;BME280;50896;46.714;17.322;2023-05-16T04:50:20;99856.31;;;13.67;100.00
64521;BME280;50896;46.714;17.322;2023-05-16T04:52:47;99857.56;;;13.72;100.00
64521;BME280;50896;46.714;17.322;2023-05-16T04:55:14;99842.16;;;13.74;100.00
64521;BME280;50896;46.714;17.322;2023-05-16T04:57:41;99815.41;;;13.67;100.00
64521;BME280;50896;46.714;17.322;2023-05-16T05:00:08;99808.88;;;13.76;100.00
64521;BME280;50896;46.714;17.322;2023-05-16T05:02:37;99805.56;;;13.74;100.00
64521;BME280;50896;46.714;17.322;2023-05-16T05:05:05;99823.06;;;13.77;100.00
64521;BME280;50896;46.714;17.322;2023-05-16T05:07:32;99823.25;;;13.75;100.00
64521;BME280;50896;46.714;17.322;2023-05-16T05:09:59;99805.38;;;13.69;100.00
64521;BME280;50896;46.714;17.322;2023-05-16T05:12:25;99797.16;;;13.71;100.00
64521;BME280;50896;46.714;17.322;2023-05-16T05:14:55;99806.41;;;13.75;100.00
64521;BME280;50896;46.714;17.322;2023-05-16T05:17:22;99802.09;;;13.74;100.00
64521;BME280;50896;46.714;17.322;2023-05-16T05:19:49;99801.06;;;13.75;100.00
64521;BME280;50896;46.714;17.322;2023-05-16T05:22:16;99815.22;;;13.68;100.00
64521;BME280;50896;46.714;17.322;2023-05-16T05:24:43;99815.59;;;13.65;100.00
64521;BME280;50896;46.714;17.322;2023-05-16T05:27:09;99803.50;;;13.70;100.00
64521;BME280;50896;46.714;17.322;2023-05-16T05:29:36;99785.25;;;13.73;100.00
64521;BME280;50896;46.714;17.322;2023-05-16T05:32:03;99783.81;;;13.71;100.00
64521;BME280;50896;46.714;17.322;2023-05-16T05:34:31;99762.44;;;13.71;100.00
64521;BME280;50896;46.714;17.322;2023-05-16T05:36:58;99757.28;;;13.69;100.00
64521;BME280;50896;46.714;17.322;2023-05-16T05:39:25;99757.69;;;13.73;100.00
64521;BME280;50896;46.714;17.322;2023-05-16T05:41:53;99759.97;;;13.69;100.00
64521;BME280;50896;46.714;17.322;2023-05-16T05:44:19;99752.78;;;13.76;100.00
64521;BME280;50896;46.714;17.322;2023-05-16T05:46:46;99760.38;;;13.73;100.00
64521;BME280;50896;46.714;17.322;2023-05-16T05:49:13;99764.47;;;13.68;100.00
64521;BME280;50896;46.714;17.322;2023-05-16T05:51:40;99770.28;;;13.79;100.00
64521;BME280;50896;46.714;17.322;2023-05-16T05:54:07;99771.69;;;13.75;100.00
64521;BME280;50896;46.714;17.322;2023-05-16T05:56:34;99770.03;;;13.74;100.00
64521;BME280;50896;46.714;17.322;2023-05-16T05:59:01;99764.09;;;13.72;100.00
64521;BME280;50896;46.714;17.322;2023-05-16T06:01:27;99770.66;;;13.76;100.00
64521;BME280;50896;46.714;17.322;2023-05-16T06:03:54;99769.59;;;13.70;100.00
64521;BME280;50896;46.714;17.322;2023-05-16T06:06:21;99772.47;;;13.68;100.00
64521;BME280;50896;46.714;17.322;2023-05-16T06:08:48;99770.03;;;13.74;100.00
64521;BME280;50896;46.714;17.322;2023-05-16T06:11:15;99758.31;;;13.68;100.00
64521;BME280;50896;46.714;17.322;2023-05-16T06:13:41;99766.13;;;13.70;100.00
64521;BME280;50896;46.714;17.322;2023-05-16T06:16:08;99766.75;;;13.72;100.00
64521;BME280;50896;46.714;17.322;2023-05-16T06:18:35;99767.53;;;13.65;100.00
64521;BME280;50896;46.714;17.322;2023-05-16T06:21:02;99775.13;;;13.68;100.00
64521;BME280;50896;46.714;17.322;2023-05-16T06:23:30;99774.53;;;13.66;100.00
64521;BME280;50896;46.714;17.322;2023-05-16T06:25:57;99771.22;;;13.64;100.00
64521;BME280;50896;46.714;17.322;2023-05-16T06:28:24;99755.53;;;13.48;100.00
64521;BME280;50896;46.714;17.322;2023-05-16T06:30:51;99771.38;;;13.56;100.00
64521;BME280;50896;46.714;17.322;2023-05-16T06:33:17;99762.56;;;13.56;100.00
64521;BME280;50896;46.714;17.322;2023-05-16T06:35:44;99759.47;;;13.59;100.00
64521;BME280;50896;46.714;17.322;2023-05-16T06:38:11;99769.09;;;13.53;100.00
64521;BME280;50896;46.714;17.322;2023-05-16T06:40:38;99767.09;;;13.55;100.00
64521;BME280;50896;46.714;17.322;2023-05-16T06:43:05;99752.88;;;13.55;100.00
64521;BME280;50896;46.714;17.322;2023-05-16T06:45:32;99744.88;;;13.48;100.00
64521;BME280;50896;46.714;17.322;2023-05-16T06:47:59;99742.81;;;13.50;100.00
64521;BME280;50896;46.714;17.322;2023-05-16T06:50:26;99753.50;;;13.50;100.00
64521;BME280;50896;46.714;17.322;2023-05-16T06:52:53;99763.16;;;13.51;100.00
64521;BME280;50896;46.714;17.322;2023-05-16T06:55:20;99768.28;;;13.53;100.00
64521;BME280;50896;46.714;17.322;2023-05-16T06:57:47;99775.66;;;13.50;100.00
64521;BME280;50896;46.714;17.322;2023-05-16T07:00:14;99770.53;;;13.49;100.00
64521;BME280;50896;46.714;17.322;2023-05-16T07:02:41;99768.69;;;13.49;100.00
64521;BME280;50896;46.714;17.322;2023-05-16T07:05:08;99765.81;;;13.51;100.00
64521;BME280;50896;46.714;17.322;2023-05-16T07:07:35;99765.63;;;13.53;100.00
64521;BME280;50896;46.714;17.322;2023-05-16T07:10:02;99774.44;;;13.53;100.00
64521;BME280;50896;46.714;17.322;2023-05-16T07:12:29;99773.84;;;13.51;100.00
64521;BME280;50896;46.714;17.322;2023-05-16T07:14:56;99770.31;;;13.50;100.00
64521;BME280;50896;46.714;17.322;2023-05-16T07:17:23;99767.66;;;13.50;100.00
64521;BME280;50896;46.714;17.322;2023-05-16T07:19:50;99762.09;;;13.45;100.00
64521;BME280;50896;46.714;17.322;2023-05-16T07:22:17;99755.50;;;13.41;100.00
64521;BME280;50896;46.714;17.322;2023-05-16T07:24:44;99767.44;;;13.45;100.00
64521;BME280;50896;46.714;17.322;2023-05-16T07:27:11;99770.31;;;13.50;100.00
64521;BME280;50896;46.714;17.322;2023-05-16T07:29:38;99755.50;;;13.41;100.00
64521;BME280;50896;46.714;17.322;2023-05-16T07:32:05;99751.31;;;13.32;100.00
64521;BME280;50896;46.714;17.322;2023-05-16T07:34:32;99773.06;;;13.29;100.00
64521;BME280;50896;46.714;17.322;2023-05-16T07:36:59;99794.81;;;13.32;100.00
64521;BME280;50896;46.714;17.322;2023-05-16T07:39:27;99785.81;;;13.33;100.00
64521;BME280;50896;46.714;17.322;2023-05-16T07:41:53;99804.88;;;13.30;100.00
64521;BME280;50896;46.714;17.322;2023-05-16T07:44:20;99799.31;;;13.25;100.00
64521;BME280;50896;46.714;17.322;2023-05-16T07:46:48;99809.03;;;13.33;100.00
64521;BME280;50896;46.714;17.322;2023-05-16T07:49:14;99800.81;;;13.34;100.00
64521;BME280;50896;46.714;17.322;2023-05-16T07:51:41;99793.44;;;13.37;100.00
64521;BME280;50896;46.714;17.322;2023-05-16T07:54:08;99769.47;;;13.43;100.00
64521;BME280;50896;46.714;17.322;2023-05-16T07:56:35;99771.56;;;13.48;100.00
64521;BME280;50896;46.714;17.322;2023-05-16T07:59:02;99750.94;;;13.35;100.00
64521;BME280;50896;46.714;17.322;2023-05-16T08:01:31;99749.75;;;13.44;100.00
64521;BME280;50896;46.714;17.322;2023-05-16T08:03:58;99752.03;;;13.47;100.00
64521;BME280;50896;46.714;17.322;2023-05-16T08:06:25;99765.19;;;13.49;100.00
64521;BME280;50896;46.714;17.322;2023-05-16T08:08:52;99773.59;;;13.46;100.00
64521;BME280;50896;46.714;17.322;2023-05-16T08:11:19;99768.25;;;13.46;100.00
64521;BME280;50896;46.714;17.322;2023-05-16T08:13:48;99758.59;;;13.45;100.00
64521;BME280;50896;46.714;17.322;2023-05-16T08:16:15;99754.09;;;13.45;100.00
64521;BME280;50896;46.714;17.322;2023-05-16T08:18:42;99762.09;;;13.45;100.00
64521;BME280;50896;46.714;17.322;2023-05-16T08:21:09;99750.16;;;13.41;100.00
64521;BME280;50896;46.714;17.322;2023-05-16T08:23:36;99755.53;;;13.48;100.00
64521;BME280;50896;46.714;17.322;2023-05-16T08:26:03;99764.16;;;13.50;100.00
64521;BME280;50896;46.714;17.322;2023-05-16T08:28:30;99755.53;;;13.48;100.00
64521;BME280;50896;46.714;17.322;2023-05-16T08:30:56;99756.78;;;13.52;100.00
64521;BME280;50896;46.714;17.322;2023-05-16T08:33:23;99743.03;;;13.55;100.00
64521;BME280;50896;46.714;17.322;2023-05-16T08:35:50;99751.25;;;13.54;100.00
64521;BME280;50896;46.714;17.322;2023-05-16T08:38:20;99741.38;;;13.54;100.00
64521;BME280;50896;46.714;17.322;2023-05-16T08:40:47;99736.50;;;13.58;100.00
64521;BME280;50896;46.714;17.322;2023-05-16T08:43:13;99737.06;;;13.53;100.00
64521;BME280;50896;46.714;17.322;2023-05-16T08:45:40;99741.59;;;13.53;100.00
64521;BME280;50896;46.714;17.322;2023-05-16T08:48:09;99747.94;;;13.52;100.00
64521;BME280;50896;46.714;17.322;2023-05-16T08:50:37;99753.69;;;13.48;100.00
64521;BME280;50896;46.714;17.322;2023-05-16T08:53:07;99753.66;;;13.42;100.00
64521;BME280;50896;46.714;17.322;2023-05-16T08:55:35;99758.97;;;13.42;100.00
64521;BME280;50896;46.714;17.322;2023-05-16T08:58:03;99753.25;;;13.45;100.00
64521;BME280;50896;46.714;17.322;2023-05-16T09:00:30;99764.31;;;13.42;100.00
64521;BME280;50896;46.714;17.322;2023-05-16T09:02:57;99763.72;;;13.40;100.00
64521;BME280;50896;46.714;17.322;2023-05-16T09:05:25;99767.41;;;13.39;100.00
64521;BME280;50896;46.714;17.322;2023-05-16T09:07:53;99769.63;;;13.35;100.00
64521;BME280;50896;46.714;17.322;2023-05-16T09:10:20;99780.47;;;13.33;100.00
64521;BME280;50896;46.714;17.322;2023-05-16T09:12:47;99760.75;;;13.34;100.00
64521;BME280;50896;46.714;17.322;2023-05-16T09:15:17;99777.25;;;13.38;100.00
64521;BME280;50896;46.714;17.322;2023-05-16T09:17:46;99799.16;;;13.33;100.00
64521;BME280;50896;46.714;17.322;2023-05-16T09:20:17;99817.47;;;13.37;100.00
64521;BME280;50896;46.714;17.322;2023-05-16T09:22:51;99827.72;;;13.33;100.00
64521;BME280;50896;46.714;17.322;2023-05-16T09:25:20;99830.97;;;13.28;100.00
64521;BME280;50896;46.714;17.322;2023-05-16T09:27:58;99833.81;;;13.27;100.00
64521;BME280;50896;46.714;17.322;2023-05-16T09:30:29;99825.63;;;13.28;100.00
64521;BME280;50896;46.714;17.322;2023-05-16T09:32:56;99808.56;;;13.29;100.00
64521;BME280;50896;46.714;17.322;2023-05-16T09:35:23;99800.56;;;13.29;100.00
64521;BME280;50896;46.714;17.322;2023-05-16T09:38:16;99790.28;;;13.26;100.00
64521;BME280;50896;46.714;17.322;2023-05-16T09:40:44;99777.59;;;13.28;100.00
64521;BME280;50896;46.714;17.322;2023-05-16T09:43:14;99758.28;;;13.33;100.00
64521;BME280;50896;46.714;17.322;2023-05-16T09:45:47;99753.50;;;13.22;100.00
64521;BME280;50896;46.714;17.322;2023-05-16T09:48:15;99754.13;;;13.24;100.00
64521;BME280;50896;46.714;17.322;2023-05-16T09:50:51;99756.78;;;13.24;100.00
64521;BME280;50896;46.714;17.322;2023-05-16T09:53:27;99742.03;;;13.28;100.00
64521;BME280;50896;46.714;17.322;2023-05-16T09:56:09;99731.16;;;13.29;100.00
64521;BME280;50896;46.714;17.322;2023-05-16T09:58:40;99733.63;;;13.31;100.00
64521;BME280;50896;46.714;17.322;2023-05-16T10:01:09;99723.94;;;13.23;100.00
64521;BME280;50896;46.714;17.322;2023-05-16T10:03:39;99734.28;;;13.33;100.00
64521;BME280;50896;46.714;17.322;2023-05-16T10:06:07;99726.69;;;13.37;100.00
64521;BME280;50896;46.714;17.322;2023-05-16T10:08:35;99721.81;;;13.40;100.00
64521;BME280;50896;46.714;17.322;2023-05-16T10:11:03;99722.63;;;13.41;100.00
64521;BME280;50896;46.714;17.322;2023-05-16T10:13:33;99732.28;;;13.42;100.00
64521;BME280;50896;46.714;17.322;2023-05-16T10:16:09;99723.25;;;13.43;100.00
64521;BME280;50896;46.714;17.322;2023-05-16T10:18:38;99728.19;;;13.46;100.00
64521;BME280;50896;46.714;17.322;2023-05-16T10:21:08;99719.94;;;13.41;100.00
64521;BME280;50896;46.714;17.322;2023-05-16T10:23:40;99726.06;;;13.34;100.00
64521;BME280;50896;46.714;17.322;2023-05-16T10:26:08;99731.41;;;13.34;100.00
64521;BME280;50896;46.714;17.322;2023-05-16T10:28:36;99725.50;;;13.39;100.00
64521;BME280;50896;46.714;17.322;2023-05-16T10:31:04;99723.34;;;13.28;100.00
64521;BME280;50896;46.714;17.322;2023-05-16T10:33:32;99711.81;;;13.21;100.00
64521;BME280;50896;46.714;17.322;2023-05-16T10:35:59;99706.47;;;13.21;100.00
64521;BME280;50896;46.714;17.322;2023-05-16T10:38:27;99680.19;;;13.18;100.00
64521;BME280;50896;46.714;17.322;2023-05-16T10:40:55;99644.94;;;13.29;100.00
64521;BME280;50896;46.714;17.322;2023-05-16T10:43:24;99624.72;;;13.48;100.00
64521;BME280;50896;46.714;17.322;2023-05-16T10:46:09;99587.97;;;13.57;100.00
64521;BME280;50896;46.714;17.322;2023-05-16T10:48:40;99590.84;;;13.68;100.00
64521;BME280;50896;46.714;17.322;2023-05-16T10:53:53;99584.91;;;13.73;100.00
64521;BME280;50896;46.714;17.322;2023-05-16T10:56:25;99588.81;;;13.84;100.00
64521;BME280;50896;46.714;17.322;2023-05-16T10:58:53;99589.66;;;13.91;100.00
64521;BME280;50896;46.714;17.322;2023-05-16T11:01:26;99584.72;;;13.95;100.00
64521;BME280;50896;46.714;17.322;2023-05-16T11:14:05;99588.41;;;14.00;100.00
64521;BME280;50896;46.714;17.322;2023-05-16T11:16:33;99553.69;;;14.00;100.00
64521;BME280;50896;46.714;17.322;2023-05-16T11:19:04;99530.88;;;14.05;100.00
64521;BME280;50896;46.714;17.322;2023-05-16T11:22:04;99509.25;;;14.19;100.00
64521;BME280;50896;46.714;17.322;2023-05-16T11:24:32;99509.25;;;14.26;100.00
64521;BME280;50896;46.714;17.322;2023-05-16T11:27:01;99506.16;;;14.29;100.00
64521;BME280;50896;46.714;17.322;2023-05-16T11:29:34;99540.50;;;14.39;100.00
64521;BME280;50896;46.714;17.322;2023-05-16T11:32:03;99561.69;;;14.34;100.00
64521;BME280;50896;46.714;17.322;2023-05-16T11:34:31;99549.56;;;14.25;100.00
64521;BME280;50896;46.714;17.322;2023-05-16T11:37:01;99564.97;;;14.36;100.00
64521;BME280;50896;46.714;17.322;2023-05-16T11:39:30;99579.38;;;14.28;100.00
64521;BME280;50896;46.714;17.322;2023-05-16T11:41:57;99581.66;;;14.25;100.00
64521;BME280;50896;46.714;17.322;2023-05-16T11:44:24;99561.28;;;14.17;100.00
64521;BME280;50896;46.714;17.322;2023-05-16T11:46:51;99569.09;;;14.25;100.00
64521;BME280;50896;46.714;17.322;2023-05-16T11:49:17;99554.91;;;14.25;100.00
64521;BME280;50896;46.714;17.322;2023-05-16T11:51:44;99557.59;;;14.25;100.00
64521;BME280;50896;46.714;17.322;2023-05-16T11:54:12;99559.84;;;14.21;100.00
64521;BME280;50896;46.714;17.322;2023-05-16T11:56:39;99553.06;;;14.12;100.00
64521;BME280;50896;46.714;17.322;2023-05-16T11:59:06;99561.91;;;14.12;100.00
64521;BME280;50896;46.714;17.322;2023-05-16T12:01:35;99576.72;;;14.08;100.00
64521;BME280;50896;46.714;17.322;2023-05-16T12:04:10;99581.00;;;14.09;100.00
64521;BME280;50896;46.714;17.322;2023-05-16T12:06:39;99574.47;;;14.05;100.00
64521;BME280;50896;46.714;17.322;2023-05-16T12:09:10;99563.56;;;14.07;100.00
64521;BME280;50896;46.714;17.322;2023-05-16T12:11:37;99560.47;;;14.03;100.00
64521;BME280;50896;46.714;17.322;2023-05-16T12:14:05;99568.50;;;14.10;100.00
64521;BME280;50896;46.714;17.322;2023-05-16T12:16:34;99559.66;;;14.02;100.00
64521;BME280;50896;46.714;17.322;2023-05-16T12:19:04;99551.44;;;14.04;100.00
64521;BME280;50896;46.714;17.322;2023-05-16T12:21:31;99566.03;;;14.01;100.00
64521;BME280;50896;46.714;17.322;2023-05-16T12:23:59;99552.03;;;14.06;100.00
64521;BME280;50896;46.714;17.322;2023-05-16T12:26:30;99570.94;;;14.05;100.00
64521;BME280;50896;46.714;17.322;2023-05-16T12:28:59;99559.25;;;14.06;100.00
64521;BME280;50896;46.714;17.322;2023-05-16T12:31:29;99559.66;;;14.02;100.00
64521;BME280;50896;46.714;17.322;2023-05-16T12:33:58;99562.31;;;14.02;100.00
64521;BME280;50896;46.714;17.322;2023-05-16T12:36:25;99555.94;;;14.04;100.00
64521;BME280;50896;46.714;17.322;2023-05-16T12:38:52;99545.66;;;14.07;100.00
64521;BME280;50896;46.714;17.322;2023-05-16T12:41:20;99542.56;;;14.10;100.00
64521;BME280;50896;46.714;17.322;2023-05-16T12:43:48;99536.63;;;14.08;100.00
64521;BME280;50896;46.714;17.322;2023-05-16T12:46:15;99533.13;;;14.14;100.00
64521;BME280;50896;46.714;17.322;2023-05-16T12:48:43;99534.97;;;14.14;100.00
64521;BME280;50896;46.714;17.322;2023-05-16T12:51:11;99530.22;;;14.16;100.00
64521;BME280;50896;46.714;17.322;2023-05-16T12:53:44;99550.81;;;14.15;100.00
64521;BME280;50896;46.714;17.322;2023-05-16T12:56:42;99545.66;;;14.14;100.00
64521;BME280;50896;46.714;17.322;2023-05-16T12:59:10;99546.28;;;14.16;100.00
64521;BME280;50896;46.714;17.322;2023-05-16T13:01:40;99528.41;;;14.16;100.00
64521;BME280;50896;46.714;17.322;2023-05-16T13:04:07;99533.31;;;14.19;100.00
64521;BME280;50896;46.714;17.322;2023-05-16T13:06:35;99524.69;;;14.24;100.00
64521;BME280;50896;46.714;17.322;2023-05-16T13:09:23;99529.81;;;14.19;100.00